M I D A S
Marine Information and Data Acquisition System
Tripno 1045 of the Zeeleeuw from 2006-03-07 09:15:18 to 2006-03-07 15:21:46
Back to CruiseResearch ActivitiesStationsMapUnderway DataData graphs

EquipmentUnitsComments
TimeDGPSUTC
LatitudeDGPSDM.mWGS84
LongitudeDGPSDM.mWGS84
SpeedMeteo Stationm/sRelative wind speed
DirectionMeteo StationdegRelative wind direction
TemperatureMeteo Stationdeg CelciusAir temperature
PressureMeteo StationPaAtmospheric pressure
HumidityMeteo Station%Relative humidity
Missing or incorrect values are displayed as -999
Metereological data collected by the RV Zeeleeuw from 2006-03-07 08:17:53 to 2006-03-07 15:35:08
Time Latitude Longitude Speed Direction Temperature Pressure Humidity
2006-03-07 08:18 51°13.595 2°56.094 -999 112 1.7 102090 78
2006-03-07 08:19 51°13.596 2°56.095 -999 79 1.8 102090 78
2006-03-07 08:20 51°13.596 2°56.095 -999 85 1.8 102090 78
2006-03-07 08:21 51°13.597 2°56.095 -999 88 1.8 102090 77
2006-03-07 08:22 51°13.599 2°56.095 -999 76 1.8 102090 77
2006-03-07 08:23 51°13.598 2°56.095 -999 66 1.8 102080 77
2006-03-07 08:24 51°13.599 2°56.095 -999 71 1.8 102080 77
2006-03-07 08:25 51°13.6 2°56.096 -999 57 1.9 102080 76
2006-03-07 08:26 51°13.599 2°56.095 -999 54 1.9 102080 76
2006-03-07 08:27 51°13.602 2°56.096 -999 38 1.9 102080 75
2006-03-07 08:28 51°13.6 2°56.094 -999 84 2 102080 75
2006-03-07 08:29 51°13.601 2°56.095 -999 65 2 102080 75
2006-03-07 08:30 51°13.6 2°56.095 -999 74 2.1 102080 75
2006-03-07 08:31 51°13.599 2°56.094 -999 72 2.1 102080 74
2006-03-07 08:32 51°13.6 2°56.094 -999 82 2.1 102080 74
2006-03-07 08:33 51°13.6 2°56.094 -999 64 2.2 102080 74
2006-03-07 08:34 51°13.599 2°56.095 -999 75 2.2 102080 74
2006-03-07 08:35 51°13.598 2°56.095 -999 73 2.3 102080 74
2006-03-07 08:36 51°13.599 2°56.095 -999 63 2.3 102080 73
2006-03-07 08:37 51°13.599 2°56.096 -999 41 2.4 102070 73
2006-03-07 08:38 51°13.6 2°56.095 -999 77 2.4 102070 73
2006-03-07 08:39 51°13.6 2°56.095 -999 55 2.4 102070 73
2006-03-07 08:40 51°13.6 2°56.094 -999 55 2.5 102070 73
2006-03-07 08:41 51°13.6 2°56.093 -999 48 2.5 102070 73
2006-03-07 08:42 51°13.599 2°56.094 -999 41 2.6 102070 72
2006-03-07 08:43 51°13.598 2°56.094 -999 37 2.6 102070 72
2006-03-07 08:44 51°13.598 2°56.094 -999 33 2.6 102070 72
2006-03-07 08:45 51°13.598 2°56.094 -999 47 2.6 102080 72
2006-03-07 08:46 51°13.599 2°56.094 -999 61 2.7 102080 72
2006-03-07 08:47 51°13.599 2°56.094 -999 82 2.7 102080 72
2006-03-07 08:48 51°13.599 2°56.095 -999 65 2.8 102080 72
2006-03-07 08:49 51°13.597 2°56.095 -999 72 2.8 102080 71
2006-03-07 08:50 51°13.597 2°56.094 -999 73 2.8 102080 71
2006-03-07 08:51 51°13.597 2°56.094 -999 81 2.8 102070 71
2006-03-07 08:52 51°13.598 2°56.094 -999 67 2.9 102070 71
2006-03-07 08:53 51°13.598 2°56.094 -999 84 2.9 102060 71
2006-03-07 08:54 51°13.597 2°56.094 -999 102 3 102060 71
2006-03-07 08:55 51°13.596 2°56.094 -999 74 3.1 102060 71
2006-03-07 08:56 51°13.597 2°56.095 -999 85 3.1 102050 70
2006-03-07 08:57 51°13.597 2°56.095 -999 69 3 102060 70
2006-03-07 08:58 51°13.598 2°56.095 -999 79 3.1 102060 70
2006-03-07 08:59 51°13.598 2°56.095 -999 70 3 102060 70
2006-03-07 09:00 51°13.597 2°56.095 -999 85 3.1 102060 70
2006-03-07 09:01 51°13.597 2°56.093 -999 32 3.1 102050 70
2006-03-07 09:02 51°13.597 2°56.094 -999 39 3.1 102050 70
2006-03-07 09:03 51°13.597 2°56.094 -999 50 3.2 102050 70
2006-03-07 09:04 51°13.597 2°56.094 -999 66 3.2 102050 70
2006-03-07 09:05 51°13.596 2°56.094 -999 44 3.2 102060 70
2006-03-07 09:06 51°13.597 2°56.087 -999 99 3.2 102060 70
2006-03-07 09:07 51°13.611 2°56.02 -999 122 3.2 102070 70
2006-03-07 09:08 51°13.632 2°55.94 -999 38 3.3 102070 70
2006-03-07 09:09 51°13.657 2°55.855 -999 134 3.4 102060 70
2006-03-07 09:10 51°13.684 2°55.765 -999 104 3.5 102060 70
2006-03-07 09:11 51°13.7 2°55.72 -999 117 3.5 102060 69
2006-03-07 09:12 51°13.729 2°55.754 -999 157 3.6 102050 69
2006-03-07 09:13 51°13.718 2°55.749 -999 191 3.6 102050 68
2006-03-07 09:14 51°13.788 2°55.68 -999 339 3.7 102020 68
2006-03-07 09:15 51°13.937 2°55.561 -999 2 3.8 102030 68
2006-03-07 09:16 51°14.085 2°55.456 -999 12 3.9 102040 68
2006-03-07 09:17 51°14.23 2°55.309 -999 347 3.9 102030 67
2006-03-07 09:18 51°14.363 2°55.077 -999 342 4 102030 66
2006-03-07 09:19 51°14.511 2°54.891 -999 294 4 102020 66
2006-03-07 09:20 51°14.599 2°54.854 -999 189 3.9 102050 66
2006-03-07 09:21 51°14.669 2°54.864 -999 241 4 102060 66
2006-03-07 09:22 51°14.821 2°54.8 -999 294 4.1 102030 66
2006-03-07 09:23 51°14.985 2°54.614 -999 296 4.1 102020 65
2006-03-07 09:24 51°15.159 2°54.43 -999 323 4.1 102040 65
2006-03-07 09:25 51°15.338 2°54.241 -999 305 4.1 102040 65
2006-03-07 09:26 51°15.513 2°54.047 -999 306 4 102040 65
2006-03-07 09:27 51°15.69 2°53.849 -999 314 4.1 102030 66
2006-03-07 09:28 51°15.87 2°53.652 -999 315 4.1 102040 67
2006-03-07 09:29 51°16.055 2°53.458 -999 306 4.1 102030 67
2006-03-07 09:30 51°16.241 2°53.275 -999 320 4 102040 67
2006-03-07 09:31 51°16.424 2°53.086 -999 314 4.1 101990 68
2006-03-07 09:32 51°16.608 2°52.899 -999 315 4 102010 68
2006-03-07 09:33 51°16.794 2°52.715 -999 313 4 102010 69
2006-03-07 09:34 51°16.99 2°52.568 -999 321 4 102010 69
2006-03-07 09:35 51°17.203 2°52.502 -999 330 4 102020 69
2006-03-07 09:36 51°17.419 2°52.445 -999 333 4 102020 69
2006-03-07 09:37 51°17.634 2°52.412 -999 356 4 102020 69
2006-03-07 09:38 51°17.847 2°52.445 -999 49 4 102020 69
2006-03-07 09:39 51°18.05 2°52.544 -999 46 4 102010 69
2006-03-07 09:40 51°18.2 2°52.765 -999 55 3.8 102000 70
2006-03-07 09:41 51°18.271 2°53.076 -999 60 3.6 102000 71
2006-03-07 09:42 51°18.356 2°53.383 -999 56 3.5 101980 72
2006-03-07 09:43 51°18.446 2°53.687 -999 56 3.4 101990 72
2006-03-07 09:44 51°18.528 2°53.998 -999 61 3.4 101990 72
2006-03-07 09:45 51°18.609 2°54.307 -999 58 3.4 102000 71
2006-03-07 09:46 51°18.688 2°54.618 -999 52 3.4 101980 70
2006-03-07 09:47 51°18.765 2°54.93 -999 65 3.4 101980 69
2006-03-07 09:48 51°18.842 2°55.244 -999 66 3.5 101990 69
2006-03-07 09:49 51°18.92 2°55.554 -999 56 3.5 101990 69
2006-03-07 09:50 51°19.004 2°55.863 -999 55 3.5 101990 68
2006-03-07 09:51 51°19.089 2°56.172 -999 54 3.6 101980 68
2006-03-07 09:52 51°19.175 2°56.479 -999 66 3.6 101980 68
2006-03-07 09:53 51°19.256 2°56.784 -999 61 3.5 101980 67
2006-03-07 09:54 51°19.339 2°57.088 -999 58 3.5 101970 65
2006-03-07 09:55 51°19.422 2°57.395 -999 63 3.6 101970 65
2006-03-07 09:56 51°19.505 2°57.707 -999 60 3.6 101960 65
2006-03-07 09:57 51°19.588 2°58.017 -999 65 3.6 101970 65
2006-03-07 09:58 51°19.678 2°58.321 -999 67 3.6 101960 64
2006-03-07 09:59 51°19.754 2°58.632 -999 72 3.6 101960 63
2006-03-07 10:00 51°19.825 2°58.942 -999 67 3.7 101960 65
2006-03-07 10:01 51°19.895 2°59.25 -999 60 3.7 101960 66
2006-03-07 10:02 51°19.962 2°59.559 -999 56 3.7 101950 67
2006-03-07 10:03 51°20.032 2°59.86 -999 63 3.6 101950 65
2006-03-07 10:04 51°20.116 3°0.155 -999 73 3.6 101960 65
2006-03-07 10:05 51°20.198 3°0.449 -999 66 3.6 101950 64
2006-03-07 10:06 51°20.28 3°0.743 -999 63 3.7 101950 69
2006-03-07 10:07 51°20.362 3°1.037 -999 66 3.7 101950 68
2006-03-07 10:08 51°20.446 3°1.329 -999 68 3.6 101960 66
2006-03-07 10:09 51°20.531 3°1.62 -999 77 3.6 101960 62
2006-03-07 10:10 51°20.617 3°1.907 -999 65 3.7 101960 63
2006-03-07 10:11 51°20.705 3°2.196 -999 71 3.7 101960 64
2006-03-07 10:12 51°20.794 3°2.484 -999 68 3.7 101970 63
2006-03-07 10:13 51°20.881 3°2.775 -999 73 3.7 101960 64
2006-03-07 10:14 51°20.968 3°3.066 -999 81 3.7 101980 63
2006-03-07 10:15 51°21.055 3°3.358 -999 73 3.7 101960 61
2006-03-07 10:16 51°21.141 3°3.651 -999 71 3.7 101950 65
2006-03-07 10:17 51°21.22 3°3.948 -999 70 3.7 101950 66
2006-03-07 10:18 51°21.299 3°4.245 -999 57 3.8 101950 64
2006-03-07 10:19 51°21.378 3°4.541 -999 68 3.7 101940 62
2006-03-07 10:20 51°21.459 3°4.836 -999 69 3.7 101950 61
2006-03-07 10:21 51°21.533 3°5.133 -999 59 3.7 101950 60
2006-03-07 10:22 51°21.604 3°5.43 -999 66 3.8 101940 62
2006-03-07 10:23 51°21.675 3°5.724 -999 66 3.8 101930 61
2006-03-07 10:24 51°21.748 3°6.015 -999 71 3.7 101930 59
2006-03-07 10:25 51°21.823 3°6.306 -999 68 3.8 101930 62
2006-03-07 10:26 51°21.889 3°6.601 -999 64 3.8 101920 61
2006-03-07 10:27 51°21.948 3°6.9 -999 65 3.8 101930 61
2006-03-07 10:28 51°21.996 3°7.2 -999 67 3.8 101920 59
2006-03-07 10:29 51°22.037 3°7.504 -999 66 3.8 101920 58
2006-03-07 10:30 51°22.07 3°7.81 -999 63 3.8 101910 57
2006-03-07 10:31 51°22.102 3°8.117 -999 59 3.9 101930 60
2006-03-07 10:32 51°22.135 3°8.422 -999 72 3.8 101920 58
2006-03-07 10:33 51°22.163 3°8.73 -999 82 3.9 101930 58
2006-03-07 10:34 51°22.175 3°9.038 -999 63 3.9 101920 60
2006-03-07 10:35 51°22.188 3°9.346 -999 64 3.9 101910 55
2006-03-07 10:36 51°22.2 3°9.653 -999 70 4 101910 56
2006-03-07 10:37 51°22.215 3°9.957 -999 61 4 101920 57
2006-03-07 10:38 51°22.231 3°10.261 -999 71 4 101910 58
2006-03-07 10:39 51°22.293 3°10.545 -999 65 4 101920 57
2006-03-07 10:40 51°22.376 3°10.823 -999 70 4 101920 52
2006-03-07 10:41 51°22.431 3°11.108 -999 65 4 101920 52
2006-03-07 10:42 51°22.446 3°11.406 -999 58 4.1 101920 51
2006-03-07 10:43 51°22.454 3°11.706 -999 52 4.1 101920 52
2006-03-07 10:44 51°22.478 3°12.005 -999 64 4.2 101930 52
2006-03-07 10:45 51°22.517 3°12.302 -999 60 4.2 101920 49
2006-03-07 10:46 51°22.553 3°12.598 -999 53 4.2 101910 50
2006-03-07 10:47 51°22.584 3°12.874 -999 63 4.2 101920 54
2006-03-07 10:48 51°22.605 3°13.002 -999 111 4.2 101930 50
2006-03-07 10:49 51°22.619 3°13.085 -999 101 4.3 101930 49
2006-03-07 10:50 51°22.617 3°13.094 -999 106 4.4 101930 52
2006-03-07 10:51 51°22.617 3°13.085 -999 108 4.4 101930 51
2006-03-07 10:52 51°22.618 3°13.071 -999 118 4.4 101920 49
2006-03-07 10:53 51°22.619 3°13.053 -999 109 4.5 101920 49
2006-03-07 10:54 51°22.622 3°13.029 -999 118 4.5 101920 51
2006-03-07 10:55 51°22.624 3°13.002 -999 107 4.5 101910 48
2006-03-07 10:56 51°22.627 3°12.973 -999 111 4.5 101910 51
2006-03-07 10:57 51°22.63 3°12.943 -999 119 4.5 101910 53
2006-03-07 10:58 51°22.632 3°12.911 -999 110 4.6 101910 48
2006-03-07 10:59 51°22.634 3°12.88 -999 113 4.6 101910 49
2006-03-07 11:00 51°22.636 3°12.847 -999 108 4.6 101900 50
2006-03-07 11:01 51°22.639 3°12.815 -999 101 4.6 101900 50
2006-03-07 11:02 51°22.641 3°12.781 -999 101 4.6 101910 52
2006-03-07 11:03 51°22.642 3°12.746 -999 106 4.7 101900 54
2006-03-07 11:04 51°22.644 3°12.711 -999 101 4.6 101910 53
2006-03-07 11:05 51°22.645 3°12.677 -999 99 4.6 101910 51
2006-03-07 11:06 51°22.647 3°12.642 -999 101 4.6 101910 49
2006-03-07 11:07 51°22.648 3°12.608 -999 88 4.6 101910 51
2006-03-07 11:08 51°22.65 3°12.576 -999 101 4.6 101910 51
2006-03-07 11:09 51°22.649 3°12.551 -999 119 4.6 101910 53
2006-03-07 11:10 51°22.648 3°12.532 -999 133 4.6 101920 55
2006-03-07 11:11 51°22.652 3°12.515 -999 130 4.6 101920 52
2006-03-07 11:12 51°22.656 3°12.494 -999 137 4.6 101910 49
2006-03-07 11:13 51°22.695 3°12.496 -999 223 4.7 101920 51
2006-03-07 11:14 51°22.777 3°12.34 -999 228 4.7 101920 50
2006-03-07 11:15 51°22.875 3°12.03 -999 322 4.8 101920 51
2006-03-07 11:16 51°22.914 3°11.658 -999 322 4.8 101900 48
2006-03-07 11:17 51°22.955 3°11.286 -999 330 4.8 101890 52
2006-03-07 11:18 51°23.008 3°10.927 -999 322 4.8 101880 51
2006-03-07 11:19 51°23.061 3°10.566 -999 324 4.7 101890 49
2006-03-07 11:20 51°23.131 3°10.214 -999 316 4.7 101890 52
2006-03-07 11:21 51°23.211 3°9.864 -999 228 4.7 101880 52
2006-03-07 11:22 51°23.296 3°9.514 -999 307 4.6 101880 52
2006-03-07 11:23 51°23.39 3°9.174 -999 315 4.7 101890 52
2006-03-07 11:24 51°23.487 3°8.835 -999 228 4.7 101880 53
2006-03-07 11:25 51°23.589 3°8.498 -999 311 4.6 101880 52
2006-03-07 11:26 51°23.689 3°8.16 -999 315 4.7 101880 55
2006-03-07 11:27 51°23.792 3°7.827 -999 37 4.7 101880 54
2006-03-07 11:28 51°23.889 3°7.488 -999 314 4.6 101880 53
2006-03-07 11:29 51°23.97 3°7.136 -999 315 4.6 101870 54
2006-03-07 11:30 51°24.048 3°6.78 -999 318 4.6 101880 55
2006-03-07 11:31 51°24.117 3°6.421 -999 39 4.6 101870 56
2006-03-07 11:32 51°24.158 3°6.051 -999 316 4.6 101850 53
2006-03-07 11:33 51°24.209 3°5.685 -999 230 4.6 101840 51
2006-03-07 11:34 51°24.31 3°5.346 -999 229 4.6 101860 53
2006-03-07 11:35 51°24.412 3°5.009 -999 42 4.7 101840 53
2006-03-07 11:36 51°24.516 3°4.679 -999 228 4.6 101860 55
2006-03-07 11:37 51°24.618 3°4.349 -999 312 4.6 101850 55
2006-03-07 11:38 51°24.694 3°4.004 -999 43 4.6 101850 53
2006-03-07 11:39 51°24.713 3°3.629 -999 322 4.6 101850 54
2006-03-07 11:40 51°24.726 3°3.266 -999 320 4.6 101850 55
2006-03-07 11:41 51°24.754 3°2.901 -999 318 4.6 101850 57
2006-03-07 11:42 51°24.779 3°2.53 -999 317 4.6 101840 56
2006-03-07 11:43 51°24.798 3°2.17 -999 322 4.6 101850 59
2006-03-07 11:44 51°24.816 3°1.801 -999 322 4.5 101830 57
2006-03-07 11:45 51°24.832 3°1.431 -999 319 4.6 101840 58
2006-03-07 11:46 51°24.849 3°1.064 -999 316 4.5 101830 58
2006-03-07 11:47 51°24.864 3°0.702 -999 318 4.5 101830 60
2006-03-07 11:48 51°24.88 3°0.337 -999 317 4.4 101830 60
2006-03-07 11:49 51°24.898 2°59.972 -999 317 4.5 101830 58
2006-03-07 11:50 51°24.916 2°59.61 -999 318 4.5 101820 59
2006-03-07 11:51 51°24.931 2°59.248 -999 40 4.5 101810 59
2006-03-07 11:52 51°24.948 2°58.886 -999 316 4.5 101810 60
2006-03-07 11:53 51°24.962 2°58.527 -999 318 4.5 101800 59
2006-03-07 11:54 51°24.976 2°58.17 -999 314 4.5 101800 59
2006-03-07 11:55 51°24.991 2°57.816 -999 313 4.5 101800 58
2006-03-07 11:56 51°25.023 2°57.465 -999 227 4.5 101800 59
2006-03-07 11:57 51°25.053 2°57.112 -999 317 4.5 101790 61
2006-03-07 11:58 51°25.082 2°56.757 -999 317 4.5 101800 62
2006-03-07 11:59 51°25.11 2°56.402 -999 228 4.5 101790 62
2006-03-07 12:00 51°25.14 2°56.044 -999 311 4.5 101790 61
2006-03-07 12:01 51°25.169 2°55.687 -999 228 4.5 101790 60
2006-03-07 12:02 51°25.196 2°55.33 -999 316 4.5 101790 61
2006-03-07 12:03 51°25.229 2°54.976 -999 43 4.5 101790 62
2006-03-07 12:04 51°25.259 2°54.616 -999 42 4.5 101790 62
2006-03-07 12:05 51°25.29 2°54.269 -999 42 4.5 101790 63
2006-03-07 12:06 51°25.322 2°53.918 -999 312 4.5 101790 62
2006-03-07 12:07 51°25.356 2°53.569 -999 41 4.5 101780 62
2006-03-07 12:08 51°25.394 2°53.218 -999 312 4.5 101780 63
2006-03-07 12:09 51°25.434 2°52.864 -999 308 4.5 101780 62
2006-03-07 12:10 51°25.482 2°52.513 -999 307 4.5 101780 63
2006-03-07 12:11 51°25.531 2°52.154 -999 309 4.5 101780 63
2006-03-07 12:12 51°25.581 2°51.812 -999 308 4.5 101780 63
2006-03-07 12:13 51°25.627 2°51.465 -999 310 4.5 101770 64
2006-03-07 12:14 51°25.678 2°51.114 -999 303 4.5 101780 63
2006-03-07 12:15 51°25.722 2°50.762 -999 303 4.4 101770 62
2006-03-07 12:16 51°25.761 2°50.401 -999 312 4.5 101770 63
2006-03-07 12:17 51°25.803 2°50.052 -999 309 4.5 101770 64
2006-03-07 12:18 51°25.848 2°49.699 -999 307 4.5 101760 63
2006-03-07 12:19 51°25.897 2°49.349 -999 305 4.5 101770 63
2006-03-07 12:20 51°25.946 2°49.001 -999 299 4.5 101750 63
2006-03-07 12:21 51°25.971 2°48.775 -999 285 4.5 101770 63
2006-03-07 12:22 51°25.968 2°48.632 -999 288 4.5 101760 64
2006-03-07 12:23 51°25.962 2°48.578 -999 263 4.5 101750 64
2006-03-07 12:24 51°25.962 2°48.562 -999 261 4.5 101750 63
2006-03-07 12:25 51°25.96 2°48.543 -999 252 4.4 101740 63
2006-03-07 12:26 51°25.961 2°48.522 -999 255 4.4 101740 63
2006-03-07 12:27 51°25.96 2°48.5 -999 260 4.4 101750 63
2006-03-07 12:28 51°25.96 2°48.476 -999 259 4.4 101750 64
2006-03-07 12:29 51°25.96 2°48.451 -999 261 4.4 101750 63
2006-03-07 12:30 51°25.961 2°48.427 -999 274 4.4 101750 63
2006-03-07 12:31 51°25.948 2°48.362 -999 316 4.4 101740 64
2006-03-07 12:32 51°25.836 2°48.174 -999 337 4.4 101710 63
2006-03-07 12:33 51°25.674 2°47.937 -999 340 4.5 101700 62
2006-03-07 12:34 51°25.496 2°47.705 -999 337 4.5 101700 63
2006-03-07 12:35 51°25.319 2°47.473 -999 342 4.5 101700 63
2006-03-07 12:36 51°25.14 2°47.235 -999 339 4.5 101720 63
2006-03-07 12:37 51°24.967 2°47.006 -999 339 4.6 101690 61
2006-03-07 12:38 51°24.788 2°46.767 -999 338 4.6 101700 62
2006-03-07 12:39 51°24.612 2°46.531 -999 339 4.6 101680 62
2006-03-07 12:40 51°24.438 2°46.3 -999 338 4.6 101690 62
2006-03-07 12:41 51°24.273 2°46.037 -999 337 4.6 101670 63
2006-03-07 12:42 51°24.114 2°45.778 -999 338 4.6 101680 63
2006-03-07 12:43 51°23.949 2°45.51 -999 335 4.6 101680 63
2006-03-07 12:44 51°23.794 2°45.243 -999 333 4.5 101680 64
2006-03-07 12:45 51°23.635 2°44.967 -999 336 4.5 101680 64
2006-03-07 12:46 51°23.48 2°44.702 -999 335 4.5 101680 64
2006-03-07 12:47 51°23.327 2°44.426 -999 336 4.5 101670 64
2006-03-07 12:48 51°23.175 2°44.142 -999 334 4.5 101670 63
2006-03-07 12:49 51°23.034 2°43.848 -999 333 4.5 101670 61
2006-03-07 12:50 51°22.893 2°43.554 -999 332 4.5 101670 62
2006-03-07 12:51 51°22.754 2°43.263 -999 330 4.5 101650 62
2006-03-07 12:52 51°22.611 2°42.96 -999 334 4.5 101670 62
2006-03-07 12:53 51°22.456 2°42.694 -999 345 4.6 101660 63
2006-03-07 12:54 51°22.274 2°42.471 -999 340 4.6 101660 64
2006-03-07 12:55 51°22.084 2°42.271 -999 346 4.6 101660 63
2006-03-07 12:56 51°21.889 2°42.068 -999 343 4.6 101650 62
2006-03-07 12:57 51°21.699 2°41.88 -999 344 4.7 101650 62
2006-03-07 12:58 51°21.504 2°41.688 -999 344 4.7 101650 62
2006-03-07 12:59 51°21.312 2°41.494 -999 343 4.7 101650 63
2006-03-07 13:00 51°21.12 2°41.302 -999 341 4.7 101630 63
2006-03-07 13:01 51°20.926 2°41.107 -999 343 4.7 101620 63
2006-03-07 13:02 51°20.738 2°40.917 -999 345 4.8 101640 64
2006-03-07 13:03 51°20.547 2°40.721 -999 345 4.8 101640 64
2006-03-07 13:04 51°20.357 2°40.53 -999 345 4.8 101640 65
2006-03-07 13:05 51°20.166 2°40.335 -999 344 4.7 101630 65
2006-03-07 13:06 51°19.977 2°40.148 -999 346 4.7 101630 65
2006-03-07 13:07 51°19.779 2°39.984 -999 347 4.7 101640 66
2006-03-07 13:08 51°19.577 2°39.834 -999 346 4.7 101640 66
2006-03-07 13:09 51°19.379 2°39.683 -999 348 4.7 101640 67
2006-03-07 13:10 51°19.186 2°39.496 -999 342 4.7 101630 66
2006-03-07 13:11 51°18.992 2°39.298 -999 343 4.7 101630 66
2006-03-07 13:12 51°18.802 2°39.101 -999 344 4.7 101640 68
2006-03-07 13:13 51°18.61 2°38.908 -999 344 4.7 101630 68
2006-03-07 13:14 51°18.42 2°38.714 -999 343 4.7 101630 68
2006-03-07 13:15 51°18.233 2°38.524 -999 340 4.7 101610 67
2006-03-07 13:16 51°18.042 2°38.323 -999 341 4.7 101620 67
2006-03-07 13:17 51°17.856 2°38.129 -999 345 4.7 101620 68
2006-03-07 13:18 51°17.668 2°37.926 -999 342 4.7 101610 68
2006-03-07 13:19 51°17.479 2°37.717 -999 345 4.7 101610 68
2006-03-07 13:20 51°17.295 2°37.517 -999 347 4.7 101600 68
2006-03-07 13:21 51°17.104 2°37.309 -999 342 4.7 101610 69
2006-03-07 13:22 51°16.916 2°37.106 -999 340 4.7 101590 69
2006-03-07 13:23 51°16.761 2°36.937 -999 332 4.7 101590 69
2006-03-07 13:24 51°16.681 2°36.847 -999 342 4.7 101600 69
2006-03-07 13:25 51°16.651 2°36.797 -999 314 4.6 101610 69
2006-03-07 13:26 51°16.66 2°36.781 -999 288 4.6 101600 69
2006-03-07 13:27 51°16.663 2°36.764 -999 272 4.6 101600 69
2006-03-07 13:28 51°16.665 2°36.743 -999 263 4.6 101610 69
2006-03-07 13:29 51°16.666 2°36.719 -999 259 4.6 101620 69
2006-03-07 13:30 51°16.668 2°36.693 -999 254 4.6 101620 70
2006-03-07 13:31 51°16.67 2°36.666 -999 256 4.6 101620 70
2006-03-07 13:32 51°16.671 2°36.636 -999 253 4.6 101610 70
2006-03-07 13:33 51°16.667 2°36.576 -999 307 4.6 101610 71
2006-03-07 13:34 51°16.581 2°36.492 -999 10 4.6 101590 71
2006-03-07 13:35 51°16.414 2°36.597 -999 24 4.6 101570 71
2006-03-07 13:36 51°16.243 2°36.779 -999 22 4.6 101560 71
2006-03-07 13:37 51°16.07 2°36.963 -999 21 4.7 101560 72
2006-03-07 13:38 51°15.885 2°37.135 -999 20 4.7 101560 72
2006-03-07 13:39 51°15.703 2°37.294 -999 19 4.6 101550 73
2006-03-07 13:40 51°15.516 2°37.459 -999 25 4.6 101570 73
2006-03-07 13:41 51°15.337 2°37.618 -999 22 4.7 101540 74
2006-03-07 13:42 51°15.15 2°37.779 -999 21 4.6 101540 74
2006-03-07 13:43 51°14.964 2°37.941 -999 21 4.6 101540 75
2006-03-07 13:44 51°14.775 2°38.102 -999 19 4.6 101540 75
2006-03-07 13:45 51°14.583 2°38.257 -999 22 4.6 101520 76
2006-03-07 13:46 51°14.396 2°38.411 -999 18 4.6 101530 76
2006-03-07 13:47 51°14.202 2°38.574 -999 20 4.5 101530 77
2006-03-07 13:48 51°14.009 2°38.706 -999 6 4.5 101530 78
2006-03-07 13:49 51°13.788 2°38.695 -999 348 4.5 101550 78
2006-03-07 13:50 51°13.591 2°38.54 -999 342 4.5 101520 79
2006-03-07 13:51 51°13.383 2°38.413 -999 349 4.4 101540 80
2006-03-07 13:52 51°13.17 2°38.29 -999 349 4.4 101540 81
2006-03-07 13:53 51°12.963 2°38.177 -999 351 4.4 101540 82
2006-03-07 13:54 51°12.749 2°38.06 -999 349 4.4 101540 82
2006-03-07 13:55 51°12.542 2°37.943 -999 350 4.4 101540 82
2006-03-07 13:56 51°12.33 2°37.82 -999 349 4.4 101530 82
2006-03-07 13:57 51°12.123 2°37.707 -999 348 4.4 101530 82
2006-03-07 13:58 51°11.912 2°37.591 -999 350 4.4 101520 82
2006-03-07 13:59 51°11.7 2°37.479 -999 349 4.4 101520 82
2006-03-07 14:00 51°11.485 2°37.363 -999 351 4.4 101520 82
2006-03-07 14:01 51°11.277 2°37.242 -999 347 4.4 101520 82
2006-03-07 14:02 51°11.073 2°37.114 -999 347 4.4 101520 82
2006-03-07 14:03 51°10.863 2°36.985 -999 349 4.4 101520 82
2006-03-07 14:04 51°10.662 2°36.861 -999 346 4.4 101520 83
2006-03-07 14:05 51°10.458 2°36.783 -999 13 4.3 101530 83
2006-03-07 14:06 51°10.339 2°37 -999 78 4.3 101520 83
2006-03-07 14:07 51°10.405 2°37.305 -999 63 4.2 101540 83
2006-03-07 14:08 51°10.443 2°37.631 -999 71 4.1 101510 83
2006-03-07 14:09 51°10.467 2°37.947 -999 67 4.1 101520 84
2006-03-07 14:10 51°10.484 2°38.277 -999 59 4.1 101520 84
2006-03-07 14:11 51°10.505 2°38.6 -999 74 4.1 101500 84
2006-03-07 14:12 51°10.547 2°38.918 -999 73 4 101520 84
2006-03-07 14:13 51°10.588 2°39.233 -999 63 4 101540 84
2006-03-07 14:14 51°10.632 2°39.558 -999 67 4 101540 85
2006-03-07 14:15 51°10.678 2°39.877 -999 73 3.9 101530 85
2006-03-07 14:16 51°10.738 2°40.19 -999 66 3.9 101530 85
2006-03-07 14:17 51°10.793 2°40.505 -999 71 3.8 101540 85
2006-03-07 14:18 51°10.849 2°40.815 -999 71 3.7 101530 86
2006-03-07 14:19 51°13.193 2°56.884 -999 88 -0.6 102090 89
2006-03-07 14:20 51°10.935 2°41.289 -999 73 3.6 101520 86
2006-03-07 14:21 51°10.993 2°41.61 -999 81 3.6 101530 86
2006-03-07 14:22 51°11.014 2°41.812 -999 85 3.6 101530 87
2006-03-07 14:23 51°11.032 2°41.889 -999 103 3.6 101540 87
2006-03-07 14:24 51°11.043 2°41.91 -999 105 3.6 101530 87
2006-03-07 14:25 51°11.052 2°41.923 -999 98 3.5 101540 88
2006-03-07 14:26 51°11.059 2°41.931 -999 95 3.5 101530 88
2006-03-07 14:27 51°11.066 2°41.936 -999 89 3.5 101530 88
2006-03-07 14:28 51°11.072 2°41.937 -999 89 3.5 101530 88
2006-03-07 14:29 51°11.079 2°41.938 -999 99 3.5 101540 88
2006-03-07 14:30 51°11.088 2°41.937 -999 92 3.4 101520 89
2006-03-07 14:31 51°11.097 2°41.936 -999 104 3.4 101520 89
2006-03-07 14:32 51°11.106 2°41.936 -999 98 3.4 101530 89
2006-03-07 14:33 51°11.115 2°41.937 -999 98 3.4 101510 89
2006-03-07 14:34 51°11.125 2°41.936 -999 95 3.4 101510 89
2006-03-07 14:35 51°11.136 2°41.999 -999 84 3.4 101520 89
2006-03-07 14:36 51°11.162 2°42.244 -999 76 3.4 101500 90
2006-03-07 14:37 51°11.199 2°42.558 -999 67 3.4 101490 90
2006-03-07 14:38 51°11.242 2°42.881 -999 75 3.3 101490 90
2006-03-07 14:39 51°11.292 2°43.207 -999 85 3.3 101490 90
2006-03-07 14:40 51°11.35 2°43.531 -999 65 3.3 101510 90
2006-03-07 14:41 51°11.407 2°43.853 -999 66 3.3 101500 90
2006-03-07 14:42 51°11.459 2°44.178 -999 70 3.3 101500 91
2006-03-07 14:43 51°11.516 2°44.505 -999 72 3.2 101510 91
2006-03-07 14:44 51°11.577 2°44.818 -999 74 3.2 101530 91
2006-03-07 14:45 51°11.643 2°45.142 -999 80 3.2 101540 91
2006-03-07 14:46 51°11.717 2°45.457 -999 72 3.2 101530 91
2006-03-07 14:47 51°11.788 2°45.768 -999 79 3.1 101520 91
2006-03-07 14:48 51°11.862 2°46.09 -999 81 3.2 101540 92
2006-03-07 14:49 51°11.933 2°46.402 -999 81 3.1 101540 92
2006-03-07 14:50 51°12.007 2°46.724 -999 80 3.1 101540 92
2006-03-07 14:51 51°12.081 2°47.034 -999 79 3.2 101540 92
2006-03-07 14:52 51°12.166 2°47.343 -999 85 3.2 101550 92
2006-03-07 14:53 51°12.251 2°47.66 -999 82 3.2 101540 92
2006-03-07 14:54 51°12.337 2°47.963 -999 81 3.2 101550 92
2006-03-07 14:55 51°12.425 2°48.269 -999 66 3.2 101540 92
2006-03-07 14:56 51°12.518 2°48.572 -999 76 3.2 101540 92
2006-03-07 14:57 51°12.611 2°48.877 -999 85 3.2 101530 92
2006-03-07 14:58 51°12.705 2°49.186 -999 90 3.2 101540 92
2006-03-07 14:59 51°12.797 2°49.492 -999 81 3.1 101540 92
2006-03-07 15:00 51°12.89 2°49.798 -999 84 3.2 101540 92
2006-03-07 15:01 51°12.981 2°50.098 -999 77 3.1 101550 92
2006-03-07 15:02 51°13.075 2°50.403 -999 84 3.2 101530 92
2006-03-07 15:03 51°13.169 2°50.714 -999 80 3.2 101540 92
2006-03-07 15:04 51°13.261 2°51.016 -999 80 3.2 101530 92
2006-03-07 15:05 51°13.353 2°51.323 -999 73 3.2 101540 92
2006-03-07 15:06 51°13.446 2°51.63 -999 72 3.2 101540 92
2006-03-07 15:07 51°13.543 2°51.936 -999 79 3.2 101550 92
2006-03-07 15:08 51°13.64 2°52.249 -999 80 3.2 101540 91
2006-03-07 15:09 51°13.737 2°52.549 -999 81 3.2 101540 91
2006-03-07 15:10 51°13.838 2°52.855 -999 71 3.3 101550 91
2006-03-07 15:11 51°13.937 2°53.156 -999 74 3.3 101550 91
2006-03-07 15:12 51°14.018 2°53.413 -999 84 3.3 101550 91
2006-03-07 15:13 51°14.071 2°53.572 -999 94 3.4 101550 91
2006-03-07 15:14 51°14.108 2°53.685 -999 118 3.4 101560 91
2006-03-07 15:15 51°14.136 2°53.767 -999 123 3.4 101560 91
2006-03-07 15:16 51°14.166 2°53.822 -999 143 3.4 101550 91
2006-03-07 15:17 51°14.219 2°53.87 -999 141 3.3 101550 91
2006-03-07 15:18 51°14.298 2°54.058 -999 88 3.3 101550 91
2006-03-07 15:19 51°14.36 2°54.332 -999 78 3.4 101550 91
2006-03-07 15:20 51°14.39 2°54.645 -999 65 3.4 101530 91
2006-03-07 15:21 51°14.369 2°54.957 -999 51 3.4 101520 91
2006-03-07 15:22 51°14.278 2°55.229 -999 27 3.5 101540 91
2006-03-07 15:23 51°14.145 2°55.403 -999 25 3.6 101520 90
2006-03-07 15:24 51°14.034 2°55.481 -999 14 3.5 101540 89
2006-03-07 15:25 51°13.946 2°55.547 -999 13 3.6 101520 89
2006-03-07 15:26 51°13.863 2°55.608 -999 6 3.6 101520 89
2006-03-07 15:27 51°13.775 2°55.684 -999 19 3.6 101520 89
2006-03-07 15:28 51°13.709 2°55.785 -999 18 3.5 101520 89
2006-03-07 15:29 51°13.67 2°55.877 -999 50 3.5 101530 89
2006-03-07 15:30 51°13.64 2°55.953 -999 35 3.5 101530 89
2006-03-07 15:31 51°13.618 2°56.016 -999 84 3.5 101540 89
2006-03-07 15:32 51°13.609 2°56.066 -999 36 3.5 101530 89
2006-03-07 15:33 51°13.604 2°56.08 -999 66 3.5 101520 90
2006-03-07 15:34 51°13.599 2°56.09 -999 30 3.4 101520 90